Time;durP1;ratioP1;P1;durP2;ratioP2;P2;SDS_P1;SDS_P2;PMS_P1;PMS_P2;Temp;Humidity;BMP_temperature;BMP_pressure;BME280_temperature;BME280_humidity;BME280_pressure;Samples;Min_cycle;Max_cycle;Signal;HPM_P1;HPM_P2
2022/09/08 00:01:59;;;;;;;0.52;0.43;;;;;;;25.30;49.81;100880.72;5037850;28;20041;-53
2022/09/08 00:04:25;;;;;;;0.35;0.30;;;;;;;25.26;49.99;100873.22;5042238;28;20020;-48
2022/09/08 00:06:51;;;;;;;0.75;0.63;;;;;;;25.29;49.70;100886.41;5035005;28;20036;-49
2022/09/08 00:09:16;;;;;;;0.60;0.60;;;;;;;25.29;49.34;100891.84;5037610;28;20100;-47
2022/09/08 00:11:42;;;;;;;1.52;0.57;;;;;;;25.28;49.88;100876.56;5032634;28;20036;-51
2022/09/08 00:14:08;;;;;;;0.80;0.32;;;;;;;25.22;49.74;100861.91;5036375;28;20060;-50
2022/09/08 00:16:33;;;;;;;0.50;0.40;;;;;;;25.27;49.75;100872.97;5025608;28;20037;-48
2022/09/08 00:18:59;;;;;;;0.45;0.40;;;;;;;25.27;49.74;100867.53;5032207;28;20030;-51
2022/09/08 00:21:26;;;;;;;0.80;0.47;;;;;;;25.27;49.69;100864.00;5039187;28;20040;-52
2022/09/08 00:23:51;;;;;;;0.55;0.38;;;;;;;25.25;49.72;100863.38;5043233;28;20116;-49
2022/09/08 00:26:17;;;;;;;0.82;0.43;;;;;;;25.26;49.69;100865.03;5029056;28;20026;-49
2022/09/08 00:28:43;;;;;;;0.65;0.47;;;;;;;25.24;49.84;100854.38;5039108;28;20052;-48
2022/09/08 00:31:09;;;;;;;0.80;0.47;;;;;;;25.24;49.63;100853.56;5033673;28;20033;-48
2022/09/08 00:33:34;;;;;;;0.47;0.40;;;;;;;25.23;49.55;100846.41;5036896;28;20052;-51
2022/09/08 00:36:03;;;;;;;0.60;0.40;;;;;;;25.23;49.79;100851.84;5029432;28;20136;-53
2022/09/08 00:38:30;;;;;;;;;;;;;;;25.19;49.69;100848.75;5057152;28;20044;-51
2022/09/08 00:40:56;;;;;;;0.73;0.50;;;;;;;25.18;49.69;100839.72;5037996;28;19909;-51
2022/09/08 00:43:28;;;;;;;0.80;0.52;;;;;;;25.20;49.85;100846.84;5034968;28;20025;-48
2022/09/08 00:45:54;;;;;;;0.80;0.50;;;;;;;25.18;49.70;100830.72;5029033;28;20018;-52
2022/09/08 00:48:21;;;;;;;0.40;0.40;;;;;;;25.17;49.76;100832.63;5024911;28;20052;-49
2022/09/08 00:50:47;;;;;;;0.70;0.60;;;;;;;25.12;49.82;100818.81;5025123;28;20125;-49
2022/09/08 00:53:15;;;;;;;0.98;0.68;;;;;;;25.12;49.83;100816.09;5033877;28;20079;-49
2022/09/08 00:55:40;;;;;;;0.50;0.40;;;;;;;25.13;49.63;100817.75;5048700;28;20060;-50
2022/09/08 00:58:06;;;;;;;0.30;0.30;;;;;;;25.17;49.74;100820.91;5049637;28;20029;-47
2022/09/08 01:00:35;;;;;;;0.60;0.50;;;;;;;25.17;49.57;100810.00;5035160;28;20109;-47
2022/09/08 01:03:00;;;;;;;0.77;0.60;;;;;;;25.16;49.74;100803.75;5039455;28;20493;-47
2022/09/08 01:05:29;;;;;;;0.43;0.30;;;;;;;25.16;49.68;100808.34;5042108;28;20045;-51
2022/09/08 01:14:11;;;;;;;1.52;0.60;;;;;;;25.14;49.60;100794.09;5049490;28;20060;-49
2022/09/08 01:16:48;;;;;;;0.60;0.50;;;;;;;25.13;49.48;100796.00;5042766;28;20025;-48
2022/09/08 01:19:28;;;;;;;0.50;0.43;;;;;;;25.12;49.58;100791.59;5042057;28;20021;-48
2022/09/08 01:22:04;;;;;;;0.70;0.60;;;;;;;25.11;49.64;100779.06;5025944;28;20021;-48
2022/09/08 01:24:45;;;;;;;0.60;0.50;;;;;;;25.11;49.62;100784.50;5046519;28;20030;-51
2022/09/08 01:27:13;;;;;;;0.93;0.50;;;;;;;25.11;49.68;100783.66;5017407;28;20071;-54
2022/09/08 01:29:41;;;;;;;1.85;0.60;;;;;;;25.09;49.58;100769.44;5024875;28;20048;-49
2022/09/08 01:32:09;;;;;;;0.70;0.63;;;;;;;25.10;49.64;100784.69;5025302;28;20042;-54
2022/09/08 01:34:41;;;;;;;;;;;;;;;25.06;49.62;100789.72;5035409;28;20084;-48
2022/09/08 01:37:06;;;;;;;0.80;0.60;;;;;;;24.99;49.73;100769.84;5043545;28;19924;-48
2022/09/08 01:39:32;;;;;;;0.40;0.40;;;;;;;25.07;49.59;100783.22;5038464;28;20030;-51
2022/09/08 01:41:57;;;;;;;0.45;0.45;;;;;;;25.06;49.67;100777.97;5045233;28;20026;-50
2022/09/08 01:44:22;;;;;;;0.85;0.52;;;;;;;25.06;49.58;100783.41;5045723;28;20021;-53
2022/09/08 01:46:48;;;;;;;1.10;0.50;;;;;;;25.05;49.76;100781.75;5034399;28;20049;-48
2022/09/08 01:49:13;;;;;;;0.60;0.60;;;;;;;25.06;49.65;100797.03;5039141;28;20068;-50
2022/09/08 01:51:38;;;;;;;0.68;0.55;;;;;;;25.05;49.65;100796.19;5036076;28;20037;-49
2022/09/08 01:54:03;;;;;;;0.68;0.52;;;;;;;25.06;49.69;100802.47;5032145;28;20037;-50
2022/09/08 01:56:29;;;;;;;0.40;0.40;;;;;;;25.01;50.10;100807.72;5038587;28;20103;-51
2022/09/08 01:58:54;;;;;;;0.70;0.40;;;;;;;25.06;49.76;100813.34;5039525;28;20036;-49
2022/09/08 02:01:19;;;;;;;0.88;0.50;;;;;;;25.05;49.62;100808.97;5030978;28;20021;-48
2022/09/08 02:03:44;;;;;;;1.13;0.45;;;;;;;25.05;49.65;100803.50;5045493;28;20036;-50
2022/09/08 02:06:10;;;;;;;0.70;0.52;;;;;;;25.02;49.31;100804.78;5031545;28;20022;-50
2022/09/08 02:08:35;;;;;;;2.78;1.15;;;;;;;25.04;49.50;100813.56;5036829;28;20036;-51
2022/09/08 02:11:01;;;;;;;1.42;0.60;;;;;;;25.03;49.48;100795.56;5040726;28;20428;-51
2022/09/08 02:13:26;;;;;;;0.68;0.50;;;;;;;25.04;49.46;100780.09;5038657;28;20030;-50
2022/09/08 02:16:00;;;;;;;0.50;0.40;;;;;;;25.04;49.57;100786.38;5038569;28;20063;-51
2022/09/08 02:18:28;;;;;;;0.68;0.50;;;;;;;25.01;49.53;100789.50;5039103;28;20556;-51
2022/09/08 02:21:01;;;;;;;1.15;0.82;;;;;;;25.02;49.40;100787.59;5037598;28;20032;-51
2022/09/08 02:23:26;;;;;;;0.50;0.47;;;;;;;25.02;49.64;100766.72;5031602;28;20028;-50
2022/09/08 02:25:54;;;;;;;0.75;0.63;;;;;;;25.00;49.56;100747.03;5045246;28;20030;-52
2022/09/08 02:28:19;;;;;;;0.90;0.70;;;;;;;25.00;49.49;100746.19;5045108;28;20030;-52
2022/09/08 02:30:45;;;;;;;0.80;0.60;;;;;;;25.00;49.36;100746.19;5044595;28;20036;-53
2022/09/08 02:33:10;;;;;;;2.67;0.60;;;;;;;24.99;49.60;100741.81;5043706;28;20040;-48
2022/09/08 02:35:35;;;;;;;0.50;0.40;;;;;;;24.98;49.60;100740.97;5058306;28;20037;-50
2022/09/08 02:38:01;;;;;;;0.80;0.60;;;;;;;24.99;49.60;100739.09;5045382;28;20040;-53
2022/09/08 02:40:26;;;;;;;0.47;0.47;;;;;;;24.98;49.46;100740.13;5044871;28;20033;-51
2022/09/08 02:42:51;;;;;;;1.05;0.75;;;;;;;24.97;49.51;100735.72;5045526;28;20099;-52
2022/09/08 02:45:16;;;;;;;0.47;0.38;;;;;;;24.91;49.66;100727.38;5044760;28;20029;-47
2022/09/08 02:47:42;;;;;;;0.80;0.70;;;;;;;24.96;49.55;100747.66;5045263;28;20035;-52
2022/09/08 02:50:07;;;;;;;0.80;0.43;;;;;;;24.96;49.39;100762.09;5040197;28;20060;-50
2022/09/08 02:52:32;;;;;;;0.80;0.50;;;;;;;24.94;49.51;100778.66;5035957;28;20041;-49
2022/09/08 02:54:58;;;;;;;0.60;0.60;;;;;;;24.92;49.63;100764.41;5041430;28;20074;-54
2022/09/08 02:57:24;;;;;;;0.60;0.50;;;;;;;24.93;49.56;100755.22;5044997;28;20088;-53
2022/09/08 02:59:49;;;;;;;0.80;0.55;;;;;;;24.93;49.32;100738.03;5044738;28;20025;-50
2022/09/08 03:02:14;;;;;;;0.73;0.52;;;;;;;24.93;49.42;100740.75;5043751;28;20030;-54
2022/09/08 03:04:40;;;;;;;0.90;0.70;;;;;;;24.90;49.43;100749.38;5032054;28;20125;-51
2022/09/08 03:07:05;;;;;;;0.80;0.55;;;;;;;24.91;49.41;100748.31;5042002;28;20021;-48
2022/09/08 03:09:30;;;;;;;0.93;0.70;;;;;;;24.89;49.66;100740.38;5044705;28;20030;-51
2022/09/08 03:11:56;;;;;;;0.75;0.50;;;;;;;24.89;49.61;100745.81;5044371;28;20494;-49
2022/09/08 03:14:21;;;;;;;0.55;0.50;;;;;;;24.88;49.41;100743.28;5044718;28;20037;-51
2022/09/08 03:16:46;;;;;;;1.00;0.60;;;;;;;24.89;49.59;100742.22;5057436;28;20036;-50
2022/09/08 03:19:11;;;;;;;0.50;0.50;;;;;;;24.88;49.45;100729.69;5059068;28;20036;-50
2022/09/08 03:21:37;;;;;;;0.50;0.50;;;;;;;24.87;49.63;100715.25;5033362;28;20026;-48
2022/09/08 03:24:02;;;;;;;0.73;0.50;;;;;;;24.86;49.52;100700.00;5040646;28;20084;-51
2022/09/08 03:26:27;;;;;;;0.70;0.60;;;;;;;24.86;49.70;100686.41;5036129;28;20090;-49
2022/09/08 03:28:52;;;;;;;1.35;0.63;;;;;;;24.86;49.57;100685.56;5038426;28;20608;-49
2022/09/08 03:31:19;;;;;;;0.85;0.65;;;;;;;24.85;49.59;100681.16;5029751;28;20029;-49
2022/09/08 03:33:44;;;;;;;1.02;0.60;;;;;;;24.85;49.68;100687.47;5043681;28;20055;-50
2022/09/08 03:36:12;;;;;;;0.52;0.50;;;;;;;24.84;49.58;100690.38;5030852;28;20057;-50
2022/09/08 03:38:37;;;;;;;0.60;0.40;;;;;;;24.81;49.66;100674.50;5034017;28;20030;-51
2022/09/08 03:41:07;;;;;;;0.70;0.60;;;;;;;24.82;49.46;100671.56;5037863;28;20075;-51
2022/09/08 03:43:32;;;;;;;0.52;0.50;;;;;;;24.83;49.40;100673.22;5033037;28;20083;-48
2022/09/08 03:45:57;;;;;;;0.70;0.50;;;;;;;24.82;49.48;100674.28;5029390;28;20109;-52
2022/09/08 03:48:22;;;;;;;0.50;0.40;;;;;;;24.82;49.53;100666.13;5037029;28;20029;-52
2022/09/08 03:50:48;;;;;;;0.47;0.43;;;;;;;24.82;49.51;100657.13;5036037;28;20017;-50
2022/09/08 03:53:13;;;;;;;0.52;0.50;;;;;;;24.80;49.50;100657.34;5030093;28;20025;-50
2022/09/08 03:55:40;;;;;;;0.47;0.38;;;;;;;24.80;49.53;100656.50;5033591;28;20752;-48
2022/09/08 03:58:05;;;;;;;0.77;0.50;;;;;;;24.80;49.55;100656.50;5039473;28;20425;-50
2022/09/08 04:00:30;;;;;;;0.73;0.40;;;;;;;24.79;49.43;100643.97;5035473;28;20099;-49
2022/09/08 04:02:56;;;;;;;0.50;0.40;;;;;;;24.78;49.84;100643.13;5037137;28;20018;-52
2022/09/08 04:05:21;;;;;;;0.63;0.60;;;;;;;24.77;49.54;100648.78;5037215;28;20018;-51
2022/09/08 04:07:46;;;;;;;0.70;0.52;;;;;;;24.78;49.59;100650.44;5041074;28;20033;-50
2022/09/08 04:10:12;;;;;;;0.60;0.50;;;;;;;24.78;49.62;100653.19;5041633;28;20016;-49
2022/09/08 04:12:38;;;;;;;0.50;0.40;;;;;;;24.77;49.54;100649.63;5034349;28;20022;-47
2022/09/08 04:15:05;;;;;;;0.60;0.55;;;;;;;24.77;49.46;100646.06;5038764;28;20028;-50
2022/09/08 04:17:30;;;;;;;0.73;0.50;;;;;;;24.75;49.57;100646.25;5036086;28;20025;-52
2022/09/08 04:19:56;;;;;;;0.75;0.55;;;;;;;24.73;49.48;100648.38;5035812;28;20033;-53
2022/09/08 04:22:21;;;;;;;0.85;0.60;;;;;;;24.69;49.64;100630.81;5043394;28;20037;-53
2022/09/08 04:24:47;;;;;;;0.80;0.40;;;;;;;24.74;49.64;100641.88;5032368;28;20026;-52
2022/09/08 04:27:13;;;;;;;0.47;0.40;;;;;;;24.74;49.53;100636.44;5026613;28;20018;-54
2022/09/08 04:29:38;;;;;;;0.45;0.40;;;;;;;24.74;49.73;100622.84;5052356;28;20036;-53
2022/09/08 04:32:04;;;;;;;0.80;0.40;;;;;;;24.74;49.70;100632.91;5047573;28;20026;-50
2022/09/08 04:34:29;;;;;;;0.82;0.40;;;;;;;24.72;49.64;100626.81;5042414;28;20037;-54
2022/09/08 04:36:55;;;;;;;0.82;0.50;;;;;;;24.72;49.54;100619.50;5046143;28;20037;-49
2022/09/08 04:39:20;;;;;;;1.67;0.82;;;;;;;24.71;49.55;100619.72;5029014;28;20021;-52
2022/09/08 04:41:46;;;;;;;0.73;0.55;;;;;;;24.66;49.63;100606.78;5042638;28;20130;-51
2022/09/08 04:44:12;;;;;;;1.08;0.47;;;;;;;24.66;49.68;100620.38;5059989;28;20029;-50
2022/09/08 04:46:37;;;;;;;1.20;0.55;;;;;;;24.70;49.35;100629.75;5053801;28;20032;-50
2022/09/08 04:49:02;;;;;;;0.85;0.75;;;;;;;24.64;49.63;100626.03;5041766;28;20760;-51
2022/09/08 04:51:29;;;;;;;0.98;0.85;;;;;;;24.69;49.57;100647.97;5029576;28;20025;-52
2022/09/08 04:53:56;;;;;;;1.08;0.50;;;;;;;24.69;49.62;100660.72;5030634;28;20502;-54
2022/09/08 04:56:23;;;;;;;0.63;0.50;;;;;;;24.68;49.49;100667.22;5037207;28;20098;-55
2022/09/08 04:58:48;;;;;;;0.68;0.30;;;;;;;24.61;49.41;100656.34;5031287;28;20109;-52
2022/09/08 05:01:19;;;;;;;0.50;0.50;;;;;;;24.68;49.59;100672.66;5039814;28;20022;-51
2022/09/08 05:03:46;;;;;;;0.73;0.40;;;;;;;24.66;49.59;100681.00;5043271;28;20033;-50
2022/09/08 05:06:13;;;;;;;0.95;0.63;;;;;;;24.65;49.64;100687.50;5037571;28;20026;-46
2022/09/08 05:08:44;;;;;;;0.60;0.50;;;;;;;24.63;49.56;100695.00;5042342;28;20085;-51
2022/09/08 05:11:10;;;;;;;0.68;0.43;;;;;;;24.64;49.54;100710.31;5039329;28;20317;-48
2022/09/08 05:13:35;;;;;;;0.55;0.32;;;;;;;24.63;49.61;100707.78;5038602;28;20021;-52
2022/09/08 05:16:11;;;;;;;1.02;0.68;;;;;;;24.63;49.80;100705.06;5041593;28;20021;-49
2022/09/08 05:18:37;;;;;;;2.67;0.50;;;;;;;24.62;49.89;100708.81;5038506;28;20388;-47
2022/09/08 05:21:03;;;;;;;0.40;0.40;;;;;;;24.60;49.85;100706.34;5030230;28;20037;-49
2022/09/08 05:23:28;;;;;;;0.77;0.50;;;;;;;24.61;49.81;100708.00;5054331;28;20030;-51
2022/09/08 05:26:02;;;;;;;0.52;0.50;;;;;;;24.61;49.79;100701.72;5041985;28;20021;-51
2022/09/08 05:28:30;;;;;;;1.73;0.60;;;;;;;24.51;49.97;100680.41;5024244;28;20493;-51
2022/09/08 05:30:56;;;;;;;0.95;0.55;;;;;;;24.62;49.83;100697.97;5045575;28;20018;-50
2022/09/08 05:33:21;;;;;;;0.88;0.60;;;;;;;24.60;49.96;100687.31;5045221;28;20032;-47
2022/09/08 05:35:47;;;;;;;0.88;0.40;;;;;;;24.60;49.73;100684.59;5044947;28;20017;-50
2022/09/08 05:38:13;;;;;;;0.50;0.40;;;;;;;24.56;49.90;100680.63;5047259;28;20048;-50
2022/09/08 05:40:39;;;;;;;0.55;0.50;;;;;;;24.62;49.83;100716.97;5045267;28;20034;-49
2022/09/08 05:43:04;;;;;;;1.60;0.50;;;;;;;24.61;50.00;100732.47;5045726;28;20053;-47
2022/09/08 05:45:30;;;;;;;0.75;0.65;;;;;;;24.60;49.77;100744.38;5045352;28;20025;-49
2022/09/08 05:47:55;;;;;;;0.43;0.40;;;;;;;24.61;49.87;100746.06;5045786;28;20021;-48
2022/09/08 05:50:20;;;;;;;0.98;0.50;;;;;;;24.58;49.63;100686.66;5044527;28;20151;-48
2022/09/08 05:52:45;;;;;;;0.50;0.30;;;;;;;24.62;49.99;100719.69;5051059;28;20024;-46
2022/09/08 05:55:11;;;;;;;0.70;0.50;;;;;;;24.60;50.01;100722.63;5035147;28;20022;-54
2022/09/08 05:57:36;;;;;;;0.70;0.50;;;;;;;24.62;50.16;100723.25;5029610;28;20024;-50
2022/09/08 06:00:03;;;;;;;0.50;0.50;;;;;;;24.60;50.25;100725.38;5042846;28;20040;-45
2022/09/08 06:02:29;;;;;;;1.67;0.57;;;;;;;24.63;50.02;100721.38;5044778;28;20032;-46
2022/09/08 06:04:55;;;;;;;0.45;0.40;;;;;;;24.63;50.25;100718.66;5044237;28;20026;-45
2022/09/08 06:07:20;;;;;;;0.57;0.30;;;;;;;24.62;50.18;100717.81;5042509;28;20041;-47
2022/09/08 06:09:45;;;;;;;0.70;0.50;;;;;;;24.62;50.32;100709.66;5044595;28;20026;-47
2022/09/08 06:12:11;;;;;;;1.45;0.77;;;;;;;24.63;50.25;100705.88;5043195;28;20036;-47
2022/09/08 06:14:36;;;;;;;0.45;0.40;;;;;;;24.63;50.42;100686.84;5038223;28;20029;-49
2022/09/08 06:17:01;;;;;;;1.33;0.60;;;;;;;24.64;50.37;100685.00;5045003;28;20025;-49
2022/09/08 06:19:26;;;;;;;0.52;0.35;;;;;;;24.64;50.56;100680.41;5042187;28;20017;-45
2022/09/08 06:21:52;;;;;;;0.93;0.50;;;;;;;24.63;50.36;100673.25;5044339;28;20089;-45
2022/09/08 06:24:17;;;;;;;0.50;0.40;;;;;;;24.63;50.44;100677.88;5045022;28;20032;-49
2022/09/08 06:27:02;;;;;;;0.50;0.45;;;;;;;24.65;50.31;100681.22;5044594;28;20379;-48
2022/09/08 06:29:42;;;;;;;1.90;0.68;;;;;;;24.64;50.43;100687.72;5021250;28;20056;-47
2022/09/08 06:32:26;;;;;;;0.73;0.50;;;;;;;24.66;50.42;100691.03;5044737;28;20029;-51
2022/09/08 06:34:54;;;;;;;1.42;0.65;;;;;;;24.65;50.58;100690.22;5040168;28;20052;-48
2022/09/08 06:37:38;;;;;;;0.57;0.57;;;;;;;24.66;50.59;100701.91;5035358;28;20109;-48
2022/09/08 06:40:11;;;;;;;0.60;0.40;;;;;;;24.66;50.61;100716.34;5036219;28;20056;-48
2022/09/08 06:42:48;;;;;;;1.58;0.50;;;;;;;24.67;50.77;100717.19;5036551;28;20032;-45
2022/09/08 06:45:20;;;;;;;0.30;0.30;;;;;;;24.67;51.07;100722.63;5017331;28;20021;-49
2022/09/08 06:47:52;;;;;;;0.68;0.30;;;;;;;24.68;50.93;100729.75;5019350;28;20022;-49
2022/09/08 06:50:18;;;;;;;0.52;0.52;;;;;;;24.67;51.13;100737.03;5025549;28;20018;-48
2022/09/08 06:52:49;;;;;;;0.93;0.47;;;;;;;24.69;51.00;100736.84;5009302;28;20490;-48
2022/09/08 06:55:30;;;;;;;0.55;0.47;;;;;;;24.69;51.04;100734.13;5017917;28;20029;-47
2022/09/08 06:57:58;;;;;;;0.82;0.65;;;;;;;24.68;51.15;100730.59;5042725;28;20040;-42
2022/09/08 07:00:24;;;;;;;0.75;0.50;;;;;;;24.69;51.07;100725.97;5042938;28;20036;-44
2022/09/08 07:03:02;;;;;;;0.65;0.50;;;;;;;24.68;51.18;100729.75;5037516;28;20087;-47
2022/09/08 07:05:33;;;;;;;0.50;0.40;;;;;;;24.67;51.05;100733.50;5027248;28;20013;-43
2022/09/08 07:08:17;;;;;;;0.52;0.50;;;;;;;24.67;50.83;100730.78;5040489;28;20026;-45
2022/09/08 07:10:47;;;;;;;1.10;0.40;;;;;;;24.66;50.83;100734.53;5040261;28;20088;-46
2022/09/08 07:13:21;;;;;;;0.88;0.30;;;;;;;24.64;50.83;100734.78;5036581;28;20033;-44
2022/09/08 07:16:05;;;;;;;1.63;0.50;;;;;;;24.65;51.04;100741.03;5033848;28;20501;-46
2022/09/08 07:18:36;;;;;;;1.60;0.40;;;;;;;24.60;50.77;100738.94;5035028;28;20097;-44
2022/09/08 07:21:43;;;;;;;0.93;0.50;;;;;;;24.62;50.73;100752.31;5026614;28;20026;-45
2022/09/08 07:24:13;;;;;;;1.15;0.68;;;;;;;24.61;50.79;100758.81;4970338;28;20051;-48
2022/09/08 07:26:56;;;;;;;0.80;0.30;;;;;;;24.61;50.88;100758.81;4954337;29;20070;-44
2022/09/08 07:29:38;;;;;;;1.02;0.60;;;;;;;24.59;50.71;100760.88;4962439;29;20432;-45
2022/09/08 07:32:04;;;;;;;0.45;0.40;;;;;;;24.58;50.80;100761.94;4946309;28;20178;-45
2022/09/08 07:34:34;;;;;;;0.70;0.47;;;;;;;24.57;50.82;100763.00;4961925;29;20039;-45
2022/09/08 07:37:08;;;;;;;0.50;0.30;;;;;;;24.57;50.81;100760.28;4963155;29;20047;-46
2022/09/08 07:39:38;;;;;;;0.50;0.40;;;;;;;24.57;50.85;100763.81;4954389;29;20560;-45
2022/09/08 07:42:05;;;;;;;0.68;0.35;;;;;;;24.56;50.90;100762.16;4977552;28;20043;-43
2022/09/08 07:44:32;;;;;;;0.68;0.38;;;;;;;24.56;50.82;100770.31;4946697;29;20692;-42
2022/09/08 07:47:12;;;;;;;0.93;0.60;;;;;;;24.57;50.72;100766.53;4962623;28;20027;-42
2022/09/08 07:50:00;;;;;;;0.82;0.40;;;;;;;24.53;50.79;100764.47;4960863;29;20042;-41
2022/09/08 07:52:49;;;;;;;1.17;0.40;;;;;;;24.56;50.96;100767.59;4954738;28;20023;-47
2022/09/08 07:55:17;;;;;;;0.50;0.35;;;;;;;24.54;51.09;100766.97;4977489;28;20036;-48
2022/09/08 07:57:48;;;;;;;0.50;0.40;;;;;;;24.55;50.96;100765.94;4955040;29;20038;-48
2022/09/08 08:00:24;;;;;;;0.80;0.50;;;;;;;24.55;51.03;100771.38;4964978;28;20048;-45
2022/09/08 08:03:37;;;;;;;0.80;0.40;;;;;;;24.57;50.88;100776.59;5039331;28;20017;-51
2022/09/08 08:06:38;;;;;;;0.85;0.57;;;;;;;24.57;51.06;100771.16;4999676;28;20031;-47
2022/09/08 08:09:41;;;;;;;0.60;0.40;;;;;;;24.57;50.77;100782.03;4997138;28;20176;-48
2022/09/08 08:12:26;;;;;;;0.60;0.40;;;;;;;24.57;50.99;100788.28;5000036;28;20026;-47
2022/09/08 08:15:11;;;;;;;0.82;0.40;;;;;;;24.57;51.32;100782.03;4986201;28;20038;-46
2022/09/08 08:17:47;;;;;;;0.60;0.52;;;;;;;24.56;51.14;100785.78;4990936;28;20544;-49
2022/09/08 08:20:21;;;;;;;0.82;0.50;;;;;;;24.58;51.20;100797.28;4999111;28;20026;-47
2022/09/08 08:23:09;;;;;;;1.77;0.50;;;;;;;24.57;51.14;100798.34;5000950;28;20060;-47
2022/09/08 08:25:47;;;;;;;0.70;0.50;;;;;;;24.57;51.34;100795.63;4997186;28;20026;-50
2022/09/08 08:28:16;;;;;;;2.03;0.40;;;;;;;24.57;51.43;100801.06;4985626;28;20063;-47
2022/09/08 08:30:49;;;;;;;0.90;0.43;;;;;;;24.57;51.40;100798.34;4999783;28;20026;-47
2022/09/08 08:33:16;;;;;;;1.13;0.57;;;;;;;24.56;51.66;100794.78;5013554;28;20033;-51
2022/09/08 08:35:52;;;;;;;1.48;0.55;;;;;;;24.56;51.44;100800.22;4998768;28;20664;-46
2022/09/08 08:38:23;;;;;;;0.70;0.50;;;;;;;24.56;51.40;100799.38;5016939;28;20029;-49
2022/09/08 08:40:56;;;;;;;0.98;0.50;;;;;;;24.55;51.31;100801.28;4987088;28;20395;-48
2022/09/08 08:43:24;;;;;;;1.40;0.30;;;;;;;24.55;51.46;100795.84;5053122;28;20029;-47
2022/09/08 08:46:07;;;;;;;0.77;0.50;;;;;;;24.55;51.35;100803.13;5031885;28;20021;-50
2022/09/08 08:48:58;;;;;;;1.08;0.50;;;;;;;24.53;51.39;100795.19;5024245;28;20034;-46
2022/09/08 08:51:42;;;;;;;1.70;0.68;;;;;;;24.53;51.59;100795.19;5021793;28;20489;-48
2022/09/08 08:54:20;;;;;;;0.93;0.30;;;;;;;24.50;51.35;100792.88;5037348;28;20025;-46
2022/09/08 08:57:07;;;;;;;0.90;0.50;;;;;;;24.53;51.52;100800.63;5029982;28;20028;-50
2022/09/08 08:59:58;;;;;;;0.80;0.55;;;;;;;24.54;51.33;100799.56;5029278;28;20034;-45
2022/09/08 09:02:35;;;;;;;0.30;0.30;;;;;;;24.53;51.33;100794.34;5024581;28;20076;-48
2022/09/08 09:05:31;;;;;;;1.03;0.70;;;;;;;24.54;51.30;100801.47;5021738;28;20036;-46
2022/09/08 09:08:02;;;;;;;1.17;0.43;;;;;;;24.54;51.36;100801.47;5018399;28;20022;-48
2022/09/08 09:10:46;;;;;;;0.47;0.40;;;;;;;24.55;51.29;100798.56;5049594;28;20108;-46
2022/09/08 09:13:37;;;;;;;0.40;0.30;;;;;;;24.54;51.23;100790.59;5024833;28;20029;-46
2022/09/08 09:16:14;;;;;;;0.30;0.30;;;;;;;24.55;51.17;100792.25;5028147;28;20405;-45
2022/09/08 09:18:59;;;;;;;0.70;0.50;;;;;;;24.51;51.11;100778.28;5039017;28;20021;-47
2022/09/08 09:21:50;;;;;;;0.68;0.40;;;;;;;24.56;51.33;100793.94;5043771;28;20490;-46
2022/09/08 09:24:33;;;;;;;0.38;0.30;;;;;;;24.57;51.07;100798.34;5032362;28;20687;-46
2022/09/08 09:27:01;;;;;;;1.08;0.40;;;;;;;24.56;51.14;100797.50;5030547;28;20061;-46
2022/09/08 09:29:26;;;;;;;0.60;0.40;;;;;;;24.54;51.17;100782.44;5041632;28;20057;-52
2022/09/08 09:32:11;;;;;;;0.68;0.40;;;;;;;24.58;50.89;100792.69;5040942;28;20021;-51
2022/09/08 09:35:32;;;;;;;0.50;0.40;;;;;;;24.58;51.05;100784.53;5013356;28;20084;-49
2022/09/08 09:38:07;;;;;;;0.90;0.40;;;;;;;24.57;51.08;100777.41;4975009;28;20090;-49
2022/09/08 09:41:02;;;;;;;0.80;0.40;;;;;;;24.60;51.23;100785.16;4959350;28;20045;-49
2022/09/08 09:43:39;;;;;;;0.70;0.57;;;;;;;24.62;51.12;100784.94;4964316;28;20035;-47
2022/09/08 09:46:19;;;;;;;1.15;0.50;;;;;;;24.63;50.96;100787.44;4965927;28;20055;-46
2022/09/08 09:49:39;;;;;;;0.52;0.40;;;;;;;24.65;51.19;100787.25;4965253;28;20035;-46
2022/09/08 09:52:30;;;;;;;0.55;0.40;;;;;;;24.65;51.02;100795.41;4900435;29;20071;-51
2022/09/08 09:55:11;;;;;;;1.13;0.40;;;;;;;24.66;50.85;100787.03;4887601;29;20040;-49
2022/09/08 09:58:01;;;;;;;0.77;0.52;;;;;;;24.67;51.03;100783.25;4902689;29;20028;-46
2022/09/08 10:00:50;;;;;;;0.68;0.50;;;;;;;24.65;50.95;100771.78;4894944;29;20035;-48
2022/09/08 10:03:33;;;;;;;0.70;0.60;;;;;;;24.67;50.95;100777.00;4905229;29;20051;-46
2022/09/08 10:06:31;;;;;;;1.48;0.70;;;;;;;24.67;51.00;100764.22;4883228;29;20124;-49
2022/09/08 10:09:13;;;;;;;1.77;0.70;;;;;;;24.66;50.82;100757.13;4884753;29;20041;-49
2022/09/08 10:11:57;;;;;;;1.13;0.60;;;;;;;24.74;51.02;100766.13;4906801;29;20103;-48
2022/09/08 10:14:43;;;;;;;0.40;0.40;;;;;;;24.76;51.00;100772.16;4955723;29;20118;-47
2022/09/08 10:17:47;;;;;;;0.95;0.55;;;;;;;24.80;50.83;100762.53;4958181;29;20045;-51
2022/09/08 10:20:44;;;;;;;1.05;0.70;;;;;;;24.84;50.92;100756.47;4950947;29;20546;-47
2022/09/08 10:23:36;;;;;;;2.80;0.65;;;;;;;24.88;50.89;100754.16;4980417;28;20038;-50
2022/09/08 10:26:39;;;;;;;1.60;0.80;;;;;;;24.90;51.01;100750.19;5002471;28;20055;-50
2022/09/08 10:29:16;;;;;;;1.45;0.70;;;;;;;24.93;50.82;100752.50;5059081;28;20035;-52
2022/09/08 10:32:12;;;;;;;1.55;0.93;;;;;;;24.98;50.97;100746.41;5026922;28;20121;-51
2022/09/08 10:35:09;;;;;;;1.23;0.60;;;;;;;25.02;51.04;100749.53;5044903;28;20651;-49
2022/09/08 10:37:46;;;;;;;1.85;0.75;;;;;;;25.04;50.93;100751.00;5060966;28;20037;-49
2022/09/08 10:40:39;;;;;;;1.35;0.60;;;;;;;25.08;50.86;100748.69;5057034;28;20041;-53
2022/09/08 10:43:35;;;;;;;1.77;0.80;;;;;;;25.08;50.76;100738.69;5044805;28;20111;-51
2022/09/08 10:46:28;;;;;;;0.75;0.50;;;;;;;25.10;50.78;100730.28;5039688;28;20018;-51
2022/09/08 10:49:21;;;;;;;1.42;0.60;;;;;;;25.11;50.90;100737.44;5024577;28;20057;-46
2022/09/08 10:52:25;;;;;;;1.17;0.70;;;;;;;25.10;50.96;100736.56;5044165;28;20036;-44
2022/09/08 10:55:15;;;;;;;1.50;0.65;;;;;;;25.12;51.06;100744.53;5050289;28;20059;-49
2022/09/08 10:58:06;;;;;;;0.80;0.52;;;;;;;25.15;50.88;100746.84;5045615;28;20033;-48
2022/09/08 11:00:40;;;;;;;1.25;0.80;;;;;;;25.17;50.92;100744.72;5031675;28;20025;-50
2022/09/08 11:03:27;;;;;;;1.45;0.80;;;;;;;25.20;50.88;100747.00;5012782;28;20041;-49
2022/09/08 11:06:23;;;;;;;1.38;0.63;;;;;;;25.23;50.93;100740.28;5032761;28;20033;-48
2022/09/08 11:08:55;;;;;;;1.38;1.00;;;;;;;25.26;50.91;100740.69;5021073;28;20053;-46
2022/09/08 11:11:34;;;;;;;0.70;0.60;;;;;;;25.29;50.74;100742.16;5036519;28;20037;-46
2022/09/08 11:14:04;;;;;;;2.78;1.13;;;;;;;25.30;50.57;100733.78;5038132;28;20018;-49
2022/09/08 11:17:00;;;;;;;1.60;1.23;;;;;;;25.31;50.70;100731.88;5037337;28;20021;-46
2022/09/08 11:19:43;;;;;;;1.67;0.98;;;;;;;25.30;50.73;100731.06;5029268;28;20022;-50
2022/09/08 11:22:38;;;;;;;1.55;0.80;;;;;;;25.30;50.64;100741.13;5037664;28;20021;-53
2022/09/08 11:25:22;;;;;;;1.02;0.60;;;;;;;25.30;50.63;100743.84;5026389;28;20111;-53
2022/09/08 11:27:48;;;;;;;1.00;0.68;;;;;;;25.29;50.65;100742.16;5032160;28;20029;-51
2022/09/08 11:30:20;;;;;;;1.58;0.70;;;;;;;25.28;50.77;100740.50;5030009;28;20033;-53
2022/09/08 11:32:54;;;;;;;3.08;0.80;;;;;;;25.28;50.90;100730.44;5046238;28;20021;-55
2022/09/08 11:35:44;;;;;;;2.30;1.60;;;;;;;25.28;50.88;100738.63;5038181;28;20052;-51
2022/09/08 11:38:28;;;;;;;1.90;0.60;;;;;;;25.28;50.88;100738.63;5016507;28;20038;-50
2022/09/08 11:41:17;;;;;;;2.53;0.90;;;;;;;25.31;50.79;100731.88;5041079;28;20013;-51
2022/09/08 11:44:08;;;;;;;1.38;0.70;;;;;;;25.30;50.75;100728.34;5032034;28;20022;-52
2022/09/08 11:46:58;;;;;;;1.92;0.98;;;;;;;25.32;50.64;100720.81;5037856;28;20031;-49
2022/09/08 11:49:26;;;;;;;1.08;0.60;;;;;;;25.32;50.72;100728.97;5038821;28;20028;-48
2022/09/08 11:52:16;;;;;;;1.50;0.70;;;;;;;25.36;50.64;100726.63;5050923;28;20060;-51
2022/09/08 11:55:00;;;;;;;1.08;0.77;;;;;;;25.36;50.47;100727.50;5037656;28;20081;-52
2022/09/08 11:57:37;;;;;;;2.10;1.05;;;;;;;25.36;50.53;100722.03;5051666;28;20074;-49
2022/09/08 12:00:11;;;;;;;1.00;0.70;;;;;;;25.36;50.41;100716.59;5025689;28;20075;-50
2022/09/08 12:02:50;;;;;;;1.25;0.68;;;;;;;25.36;50.39;100713.03;5042835;28;20044;-53